Time;durP1;ratioP1;P1;durP2;ratioP2;P2;SDS_P1;SDS_P2;PMS_P1;PMS_P2;Temp;Humidity;BMP_temperature;BMP_pressure;BME280_temperature;BME280_humidity;BME280_pressure;Samples;Min_cycle;Max_cycle;Signal;HPM_P1;HPM_P2
2022/05/21 00:01:06;;;;;;;1.17;0.68;;;;;;;14.88;54.34;94905.41;5033077;28;20603;-61
2022/05/21 00:03:31;;;;;;;1.73;1.30;;;;;;;14.85;54.33;94908.25;5033258;28;20217;-62
2022/05/21 00:05:57;;;;;;;1.58;1.20;;;;;;;14.90;55.02;94908.63;5033413;28;20236;-62
2022/05/21 00:08:22;;;;;;;3.45;0.93;;;;;;;14.88;55.04;94902.84;5015414;28;20202;-61
2022/05/21 00:10:48;;;;;;;1.23;1.08;;;;;;;14.89;55.21;94895.94;5033086;28;20257;-61
2022/05/21 00:13:13;;;;;;;2.17;1.42;;;;;;;14.78;55.83;94893.63;5015238;28;20210;-62
2022/05/21 00:15:39;;;;;;;2.15;1.17;;;;;;;14.63;56.08;94892.56;5033180;28;20193;-60
2022/05/21 00:18:05;;;;;;;3.50;1.25;;;;;;;14.53;56.56;94895.19;5015108;28;20206;-63
2022/05/21 00:20:49;;;;;;;2.95;1.10;;;;;;;14.48;56.96;94891.50;5033138;28;20175;-60
2022/05/21 00:23:20;;;;;;;4.78;1.20;;;;;;;14.48;57.12;94878.69;5015200;28;20234;-59
2022/05/21 00:25:47;;;;;;;1.65;1.40;;;;;;;14.54;57.45;94885.78;5033103;28;20663;-61
2022/05/21 00:28:13;;;;;;;4.00;1.50;;;;;;;14.70;57.46;94891.84;5032747;28;20231;-59
2022/05/21 00:30:39;;;;;;;2.28;1.20;;;;;;;14.94;58.18;94868.97;5032755;28;20206;-62
2022/05/21 00:33:06;;;;;;;1.30;1.20;;;;;;;14.72;57.63;94877.13;5014863;28;20222;-63
2022/05/21 00:35:32;;;;;;;4.93;1.48;;;;;;;14.51;58.48;94878.38;5032703;28;20175;-60
2022/05/21 00:37:58;;;;;;;3.13;1.10;;;;;;;14.59;58.08;94881.00;5032650;28;20596;-62
2022/05/21 00:40:23;;;;;;;4.78;0.85;;;;;;;14.57;57.13;94893.16;5032630;28;20182;-60
2022/05/21 00:42:49;;;;;;;1.17;0.98;;;;;;;14.58;56.50;94907.56;5032422;28;20295;-61
2022/05/21 00:45:15;;;;;;;2.45;0.93;;;;;;;14.52;55.64;94914.06;5032098;28;20213;-62
2022/05/21 00:47:41;;;;;;;1.85;1.00;;;;;;;14.50;56.64;94897.25;5014640;28;20206;-61
2022/05/21 00:50:10;;;;;;;4.70;1.30;;;;;;;14.39;56.15;94908.50;5032421;28;20183;-60
2022/05/21 00:52:38;;;;;;;4.00;1.02;;;;;;;14.48;55.24;94915.31;5032598;28;20705;-60
2022/05/21 00:55:13;;;;;;;1.88;1.13;;;;;;;14.33;55.76;94891.19;5014633;28;20182;-60
2022/05/21 00:57:44;;;;;;;1.52;0.90;;;;;;;14.21;56.35;94884.66;5032604;28;20580;-60
2022/05/21 01:00:20;;;;;;;1.00;0.88;;;;;;;14.04;56.85;94878.59;5032374;28;20186;-60
2022/05/21 01:02:51;;;;;;;3.60;1.05;;;;;;;13.96;56.77;94877.69;5032182;28;20206;-61
2022/05/21 01:05:20;;;;;;;2.60;1.23;;;;;;;13.89;57.18;94871.56;5032354;28;20212;-60
2022/05/21 01:07:46;;;;;;;2.20;1.10;;;;;;;13.92;57.09;94873.81;5032608;28;20244;-62
2022/05/21 01:10:16;;;;;;;2.90;1.50;;;;;;;13.85;58.10;94858.28;5014528;28;20182;-60
2022/05/21 01:12:50;;;;;;;2.47;1.43;;;;;;;13.92;57.88;94859.28;5032371;28;20199;-60
2022/05/21 01:15:21;;;;;;;2.42;1.13;;;;;;;13.93;57.54;94865.22;5032228;28;20636;-67
2022/05/21 01:17:47;;;;;;;2.37;1.17;;;;;;;13.95;57.26;94864.13;5014286;28;20197;-60
2022/05/21 01:20:18;;;;;;;2.83;1.10;;;;;;;13.92;57.20;94854.19;5014431;28;20546;-63
2022/05/21 01:22:49;;;;;;;1.30;0.90;;;;;;;14.03;56.89;94868.50;5032167;28;20217;-60
2022/05/21 01:25:18;;;;;;;5.82;1.05;;;;;;;14.08;57.96;94856.09;5032070;28;20220;-60
2022/05/21 01:27:44;;;;;;;7.65;1.33;;;;;;;14.04;57.20;94877.78;5031996;28;20198;-61
2022/05/21 01:30:15;;;;;;;1.08;0.95;;;;;;;14.24;56.93;94886.94;5025724;23;20243;-61
2022/05/21 01:32:45;;;;;;;1.15;1.00;;;;;;;14.24;55.17;94909.97;5050801;28;20709;-60
2022/05/21 01:35:11;;;;;;;3.17;0.98;;;;;;;14.02;55.79;94895.00;5051763;28;20206;-60
2022/05/21 01:37:36;;;;;;;1.53;0.70;;;;;;;13.79;57.12;94873.38;5051775;28;20205;-62
2022/05/21 01:40:02;;;;;;;2.58;0.85;;;;;;;13.60;58.01;94845.38;5051681;28;20173;-61
2022/05/21 01:42:27;;;;;;;2.10;0.82;;;;;;;13.64;58.93;94839.03;5051799;28;20189;-61
2022/05/21 01:44:53;;;;;;;1.95;0.80;;;;;;;13.58;60.00;94830.19;5050392;28;20209;-62
2022/05/21 01:47:20;;;;;;;1.38;0.75;;;;;;;13.77;59.98;94830.09;5050442;28;20709;-59
2022/05/21 01:49:46;;;;;;;2.47;1.10;;;;;;;13.93;59.87;94844.78;5051781;28;20181;-62
2022/05/21 01:52:13;;;;;;;1.48;1.13;;;;;;;13.65;61.14;94833.00;5051781;28;20614;-61
2022/05/21 01:54:38;;;;;;;2.13;0.90;;;;;;;13.88;61.24;94832.41;5051702;28;20276;-62
2022/05/21 01:57:05;;;;;;;2.58;1.10;;;;;;;13.81;60.50;94845.94;5054300;28;20327;-60
2022/05/21 01:59:31;;;;;;;2.23;1.20;;;;;;;13.76;60.56;94846.34;5055572;28;20610;-60
2022/05/21 02:01:56;;;;;;;3.53;1.40;;;;;;;13.54;61.46;94825.50;5055961;28;20223;-60
2022/05/21 02:04:22;;;;;;;2.40;1.37;;;;;;;13.46;61.29;94821.13;5055322;28;20221;-61
2022/05/21 02:06:48;;;;;;;1.90;1.10;;;;;;;13.27;62.19;94821.25;5055923;28;20186;-62
2022/05/21 02:09:15;;;;;;;4.67;1.30;;;;;;;13.27;62.07;94816.91;5054360;28;20209;-60
2022/05/21 02:11:41;;;;;;;1.85;1.35;;;;;;;13.30;62.51;94811.53;5055673;28;20181;-60
2022/05/21 02:14:07;;;;;;;1.37;1.27;;;;;;;12.88;63.68;94799.34;5055223;28;20288;-61
2022/05/21 02:16:34;;;;;;;4.67;1.17;;;;;;;12.55;65.42;94793.81;5053941;28;20728;-60
2022/05/21 02:19:04;;;;;;;1.57;1.10;;;;;;;12.39;66.11;94805.50;5055127;28;20690;-61
2022/05/21 02:21:31;;;;;;;1.53;1.00;;;;;;;12.35;65.46;94825.38;5055108;28;20185;-60
2022/05/21 02:23:57;;;;;;;0.80;0.77;;;;;;;12.30;65.69;94819.09;5054993;28;20218;-59
2022/05/21 02:26:22;;;;;;;3.27;1.37;;;;;;;12.17;65.89;94828.75;5055330;28;20235;-61
2022/05/21 02:28:48;;;;;;;2.87;1.00;;;;;;;12.19;65.38;94827.69;5055018;28;20201;-62
2022/05/21 02:31:14;;;;;;;1.37;0.90;;;;;;;12.28;65.44;94836.28;5053370;28;20205;-61
2022/05/21 02:33:46;;;;;;;1.27;0.93;;;;;;;12.31;65.17;94835.97;5053489;28;20205;-60
2022/05/21 02:36:11;;;;;;;0.80;0.80;;;;;;;12.45;64.79;94841.47;5053628;28;20217;-60
2022/05/21 02:41:22;;;;;;;2.67;0.93;;;;;;;12.44;64.40;94839.84;5055178;28;20658;-60
2022/05/21 02:43:48;;;;;;;1.20;1.03;;;;;;;12.20;65.19;94833.59;5053161;28;20213;-62
2022/05/21 02:46:15;;;;;;;1.40;1.00;;;;;;;12.11;66.13;94811.44;5054778;28;20334;-60
2022/05/21 02:48:41;;;;;;;1.60;1.10;;;;;;;12.16;66.52;94815.19;5054510;28;20327;-59
2022/05/21 02:51:09;;;;;;;1.23;1.03;;;;;;;12.13;66.29;94818.03;5054718;28;20187;-59
2022/05/21 02:53:35;;;;;;;3.10;1.10;;;;;;;12.04;66.83;94818.81;5054247;28;20575;-62
2022/05/21 02:56:13;;;;;;;1.73;1.10;;;;;;;11.91;67.53;94818.31;5054366;28;20708;-63
2022/05/21 02:58:39;;;;;;;1.30;1.10;;;;;;;12.05;67.81;94822.19;5053008;28;20347;-62
2022/05/21 03:01:05;;;;;;;1.17;1.07;;;;;;;12.11;67.54;94829.28;5053033;28;20604;-61
2022/05/21 03:03:31;;;;;;;1.67;1.20;;;;;;;12.27;66.87;94835.47;5036091;28;20194;-60
2022/05/21 03:05:57;;;;;;;3.17;0.90;;;;;;;12.11;68.01;94831.84;5053331;28;20185;-60
2022/05/21 03:11:06;;;;;;;5.70;1.20;;;;;;;12.46;66.58;94866.00;5054903;28;20204;-63
2022/05/21 03:13:34;;;;;;;2.50;1.30;;;;;;;12.47;66.40;94867.63;5054106;28;20209;-60
2022/05/21 03:15:59;;;;;;;3.00;1.20;;;;;;;12.57;67.01;94860.78;5054052;28;20192;-60
2022/05/21 03:18:25;;;;;;;3.43;1.17;;;;;;;12.47;65.94;94875.28;5054187;28;20209;-60
2022/05/21 03:20:51;;;;;;;1.93;1.10;;;;;;;12.59;67.12;94852.97;5054312;28;20217;-60
2022/05/21 03:23:17;;;;;;;2.20;1.27;;;;;;;12.42;65.65;94879.19;5052535;28;20201;-63
2022/05/21 03:25:43;;;;;;;1.50;1.40;;;;;;;12.34;66.32;94863.75;5052921;28;20221;-60
2022/05/21 03:28:16;;;;;;;4.13;1.10;;;;;;;12.18;66.04;94876.25;5053653;28;20197;-61
2022/05/21 03:30:42;;;;;;;2.10;1.37;;;;;;;12.13;66.34;94863.91;5053839;28;20193;-62
2022/05/21 03:33:08;;;;;;;1.80;1.20;;;;;;;12.17;66.06;94865.25;5052241;28;20202;-60
2022/05/21 03:35:34;;;;;;;1.67;1.40;;;;;;;12.17;65.32;94866.97;5053847;28;20200;-62
2022/05/21 03:38:00;;;;;;;6.67;1.10;;;;;;;12.18;64.79;94868.59;5053942;28;20217;-60
2022/05/21 03:40:29;;;;;;;3.80;2.20;;;;;;;12.19;65.02;94877.84;5052337;28;20173;-63
2022/05/21 03:42:54;;;;;;;5.30;3.00;;;;;;;12.15;65.01;94872.22;5053483;28;20691;-61
2022/05/21 03:45:20;;;;;;;3.97;1.27;;;;;;;12.29;63.89;94899.03;5053442;28;20224;-61
2022/05/21 03:47:46;;;;;;;3.13;1.50;;;;;;;12.42;65.34;94876.63;5053339;28;20616;-61
2022/05/21 03:50:17;;;;;;;1.53;1.30;;;;;;;12.37;64.10;94891.53;5053363;28;20223;-59
2022/05/21 03:52:43;;;;;;;2.27;1.20;;;;;;;12.38;65.14;94873.53;5053359;28;20205;-60
2022/05/21 03:55:15;;;;;;;1.47;1.30;;;;;;;12.13;65.85;94869.00;5053549;28;20247;-61
2022/05/21 03:57:41;;;;;;;3.13;1.50;;;;;;;12.23;66.79;94869.81;5058848;22;20214;-59
2022/05/21 04:00:10;;;;;;;3.70;1.90;;;;;;;12.35;66.85;94868.72;5033416;28;20173;-60
2022/05/21 04:02:37;;;;;;;3.97;1.37;;;;;;;12.48;68.75;94840.41;5033429;28;20572;-62
2022/05/21 04:05:07;;;;;;;3.50;1.30;;;;;;;12.85;67.52;94861.66;5015162;28;20218;-60
2022/05/21 04:07:32;;;;;;;3.10;1.40;;;;;;;13.00;66.48;94890.91;5033796;28;20187;-61
2022/05/21 04:09:58;;;;;;;3.23;1.17;;;;;;;13.17;66.22;94891.97;5033017;28;20201;-59
2022/05/21 04:12:23;;;;;;;3.20;1.17;;;;;;;12.97;67.30;94864.88;5033058;28;20213;-60
2022/05/21 04:14:49;;;;;;;2.80;1.42;;;;;;;13.26;67.34;94889.38;5015494;28;20186;-61
2022/05/21 04:17:15;;;;;;;2.27;1.70;;;;;;;13.22;67.97;94879.56;5033101;28;20178;-60
2022/05/21 04:19:41;;;;;;;7.68;2.63;;;;;;;13.23;68.29;94879.44;5039648;22;20233;-60
2022/05/21 04:22:07;;;;;;;1.92;1.60;;;;;;;13.32;68.45;94882.88;5033030;28;20204;-60
2022/05/21 04:24:33;;;;;;;4.35;2.85;;;;;;;13.29;68.18;94876.31;5032819;28;20209;-60
2022/05/21 04:26:58;;;;;;;2.97;1.60;;;;;;;13.57;67.88;94878.88;5032964;28;20174;-63
2022/05/21 04:29:24;;;;;;;8.52;2.15;;;;;;;13.63;65.04;94927.66;5032736;28;20216;-60
2022/05/21 04:31:49;;;;;;;5.80;2.20;;;;;;;13.60;66.57;94901.56;5032602;28;20574;-60
2022/05/21 04:34:15;;;;;;;5.72;2.60;;;;;;;13.33;67.25;94894.72;5032558;28;20695;-61
2022/05/21 04:36:41;;;;;;;5.68;2.40;;;;;;;13.31;68.93;94858.31;5032774;28;20699;-63
2022/05/21 04:39:07;;;;;;;4.00;2.20;;;;;;;13.55;69.44;94862.91;5032704;28;20236;-62
2022/05/21 04:41:33;;;;;;;7.03;2.13;;;;;;;13.82;69.45;94862.84;5032635;28;20182;-59
2022/05/21 04:43:58;;;;;;;2.15;1.73;;;;;;;13.85;66.26;94918.81;5014909;28;20224;-60
2022/05/21 04:46:25;;;;;;;3.57;2.30;;;;;;;13.82;64.85;94925.00;5015031;28;20644;-61
2022/05/21 04:48:51;;;;;;;3.03;1.30;;;;;;;13.74;63.70;94957.31;5032944;28;20229;-61
2022/05/21 04:51:17;;;;;;;2.20;1.20;;;;;;;13.62;63.68;94938.00;5032392;28;20671;-63
2022/05/21 04:53:43;;;;;;;2.05;1.40;;;;;;;13.75;64.43;94934.19;5014791;28;20214;-62
2022/05/21 04:56:08;;;;;;;1.60;1.20;;;;;;;13.65;66.17;94900.22;5032450;28;20240;-59
2022/05/21 04:58:34;;;;;;;1.67;1.20;;;;;;;13.76;66.32;94899.19;5032818;28;20225;-61
2022/05/21 05:01:02;;;;;;;2.03;1.30;;;;;;;13.71;67.24;94894.53;5032553;28;20257;-60
2022/05/21 05:03:28;;;;;;;2.80;1.23;;;;;;;13.76;67.59;94883.88;5014854;28;20206;-61
2022/05/21 05:06:00;;;;;;;2.50;1.30;;;;;;;13.73;68.47;94871.41;4998066;28;20221;-60
2022/05/21 05:08:26;;;;;;;1.60;1.33;;;;;;;13.86;67.50;94887.19;5014297;28;20267;-61
2022/05/21 05:10:52;;;;;;;3.27;1.20;;;;;;;13.88;66.75;94908.28;5014413;28;20170;-61
2022/05/21 05:13:18;;;;;;;2.33;1.33;;;;;;;13.46;66.74;94903.66;5032121;28;20203;-60
2022/05/21 05:15:45;;;;;;;4.27;1.10;;;;;;;13.36;67.19;94892.69;5031889;28;20186;-61
2022/05/21 05:18:21;;;;;;;1.97;1.10;;;;;;;13.45;67.07;94898.72;5031935;28;20217;-61
2022/05/21 05:20:46;;;;;;;5.83;1.70;;;;;;;13.64;67.17;94900.34;5032320;28;20185;-60
2022/05/21 05:23:12;;;;;;;6.13;1.30;;;;;;;13.84;66.96;94912.06;5032299;28;20221;-59
2022/05/21 05:25:38;;;;;;;5.80;1.77;;;;;;;13.86;68.17;94879.50;5031841;28;20292;-62
2022/05/21 05:28:05;;;;;;;4.43;1.30;;;;;;;14.06;67.11;94898.88;5013897;28;20659;-62
2022/05/21 05:30:31;;;;;;;2.40;1.48;;;;;;;14.22;67.03;94899.06;5033181;28;20178;-60
2022/05/21 05:32:57;;;;;;;3.90;1.65;;;;;;;14.26;66.02;94908.06;5036157;28;20206;-61
2022/05/21 05:35:22;;;;;;;4.18;1.67;;;;;;;14.37;66.42;94889.94;5035888;28;20183;-61
2022/05/21 05:37:48;;;;;;;3.45;1.75;;;;;;;14.56;67.00;94887.25;5018175;28;20241;-61
2022/05/21 05:40:18;;;;;;;3.58;1.85;;;;;;;14.73;66.85;94881.28;5035932;28;20203;-60
2022/05/21 05:42:43;;;;;;;10.63;2.00;;;;;;;14.81;67.88;94881.34;5034732;28;20629;-62
2022/05/21 05:45:12;;;;;;;5.55;1.50;;;;;;;14.91;67.41;94888.91;5017983;28;20636;-59
2022/05/21 05:47:38;;;;;;;3.80;2.00;;;;;;;15.05;65.73;94914.78;5035680;28;20255;-62
2022/05/21 05:50:04;;;;;;;6.78;2.25;;;;;;;15.06;65.02;94913.84;5035659;28;20665;-60
2022/05/21 05:52:29;;;;;;;5.40;1.98;;;;;;;15.10;65.56;94907.47;5035717;28;20197;-59
2022/05/21 05:54:55;;;;;;;2.60;1.50;;;;;;;15.17;65.36;94899.97;5035740;28;20175;-61
2022/05/21 05:57:21;;;;;;;7.85;2.00;;;;;;;15.30;65.67;94899.56;5035499;28;20344;-61
2022/05/21 05:59:50;;;;;;;3.53;1.42;;;;;;;15.41;60.38;94987.19;5035540;28;20208;-61
2022/05/21 06:05:08;;;;;;;6.78;2.05;;;;;;;15.58;61.21;94947.13;5035371;28;20213;-61
2022/05/21 06:07:34;;;;;;;2.78;1.67;;;;;;;15.67;61.56;94944.47;5017705;28;20210;-59
2022/05/21 06:10:06;;;;;;;2.67;1.85;;;;;;;15.72;62.16;94920.91;5035334;28;20574;-60
2022/05/21 06:12:32;;;;;;;4.30;1.77;;;;;;;15.79;61.90;94934.75;5035616;28;20269;-63
2022/05/21 06:14:58;;;;;;;3.70;1.73;;;;;;;16.12;60.12;94958.75;5035164;28;20210;-61
2022/05/21 06:17:25;;;;;;;1.95;1.42;;;;;;;16.26;58.52;94982.00;5035356;28;20198;-63
2022/05/21 06:19:52;;;;;;;2.22;1.42;;;;;;;16.34;57.20;95001.78;5035776;28;20194;-63
2022/05/21 06:22:18;;;;;;;2.25;1.25;;;;;;;16.44;57.38;94990.41;5035167;28;20182;-64
2022/05/21 06:24:44;;;;;;;4.30;1.50;;;;;;;16.55;57.48;94979.88;5035205;28;20206;-60
2022/05/21 06:27:09;;;;;;;2.83;1.15;;;;;;;16.44;56.98;94987.81;5035111;28;20182;-62
2022/05/21 06:29:35;;;;;;;4.55;1.48;;;;;;;16.61;55.96;94991.28;5034874;28;20198;-63
2022/05/21 06:32:04;;;;;;;2.17;1.60;;;;;;;16.93;55.18;94999.00;5017416;28;20178;-64
2022/05/21 06:34:29;;;;;;;4.63;1.90;;;;;;;16.80;56.23;94973.00;5034663;28;20202;-61
2022/05/21 06:36:55;;;;;;;3.10;1.70;;;;;;;17.27;56.65;94968.03;5035033;28;20181;-61
2022/05/21 06:39:20;;;;;;;4.47;1.65;;;;;;;17.35;56.89;94947.44;5034623;28;20191;-62
2022/05/21 06:41:46;;;;;;;4.82;2.28;;;;;;;17.07;56.89;94953.91;5034330;28;20186;-61
2022/05/21 06:44:11;;;;;;;3.75;1.83;;;;;;;17.45;56.95;94941.13;5016897;28;20206;-61
2022/05/21 06:46:37;;;;;;;10.05;2.10;;;;;;;17.46;56.78;94932.47;5016814;28;20185;-63
2022/05/21 06:49:03;;;;;;;5.93;2.50;;;;;;;17.72;56.92;94927.13;5035098;28;20555;-62
2022/05/21 06:51:29;;;;;;;5.38;2.35;;;;;;;17.44;58.37;94897.63;5034474;28;20243;-65
2022/05/21 06:53:54;;;;;;;6.70;2.20;;;;;;;17.60;56.72;94928.44;5034898;28;20206;-62
2022/05/21 06:56:20;;;;;;;6.40;2.25;;;;;;;17.78;57.25;94905.06;5016589;28;20196;-60
2022/05/21 06:58:46;;;;;;;9.18;3.03;;;;;;;17.77;56.20;94922.28;5034641;28;20251;-60
2022/05/21 07:01:11;;;;;;;8.45;2.40;;;;;;;17.66;56.06;94930.34;5034214;28;20186;-61
2022/05/21 07:03:37;;;;;;;14.48;2.95;;;;;;;18.07;55.71;94931.81;5034306;28;20210;-62
2022/05/21 07:08:49;;;;;;;12.25;3.65;;;;;;;18.41;54.53;94941.75;5034601;28;20237;-59
2022/05/21 07:11:14;;;;;;;7.68;3.30;;;;;;;18.40;54.88;94928.06;5033760;28;20585;-62
2022/05/21 07:13:40;;;;;;;9.75;3.53;;;;;;;18.63;55.76;94907.50;5034144;28;20680;-61
2022/05/21 07:16:06;;;;;;;10.95;4.78;;;;;;;18.86;53.05;94953.88;5034037;28;20178;-62
2022/05/21 07:18:32;;;;;;;11.13;5.80;;;;;;;18.85;54.29;94936.78;4999407;28;20291;-60
2022/05/21 07:20:58;;;;;;;9.57;4.35;;;;;;;18.92;53.82;94938.53;5033820;28;20189;-59
2022/05/21 07:23:26;;;;;;;10.07;5.25;;;;;;;19.06;53.29;94947.25;5033654;28;20316;-63
2022/05/21 07:25:53;;;;;;;11.23;4.55;;;;;;;19.35;52.74;94955.09;5033557;28;20232;-62
2022/05/21 07:28:19;;;;;;;15.05;5.28;;;;;;;19.50;52.69;94943.00;5033896;28;20211;-62
2022/05/21 07:30:46;;;;;;;9.73;4.38;;;;;;;19.14;52.05;94949.78;5033817;28;20166;-60
2022/05/21 07:33:14;;;;;;;10.15;4.50;;;;;;;19.21;51.18;94963.53;5034020;28;20230;-63
2022/05/21 07:35:40;;;;;;;14.05;5.05;;;;;;;19.42;50.74;94968.88;5033864;28;20647;-62
2022/05/21 07:38:06;;;;;;;13.27;5.13;;;;;;;19.53;52.31;94932.34;5033824;28;20203;-62
2022/05/21 07:40:33;;;;;;;9.98;4.63;;;;;;;19.69;51.84;94939.91;5033649;28;20174;-62
2022/05/21 07:42:59;;;;;;;11.75;6.45;;;;;;;20.15;50.66;94961.13;5033777;28;20608;-63
2022/05/21 07:45:24;;;;;;;12.40;5.72;;;;;;;20.13;49.81;94960.50;5033233;28;20202;-63
2022/05/21 07:47:50;;;;;;;14.27;6.05;;;;;;;20.21;51.00;94941.56;5033470;28;20252;-61
2022/05/21 07:50:17;;;;;;;13.90;6.82;;;;;;;20.31;51.62;94929.16;5045159;22;20221;-61
2022/05/21 07:52:43;;;;;;;14.80;6.63;;;;;;;20.51;52.19;94907.72;5053280;28;20205;-61
2022/05/21 07:55:10;;;;;;;13.13;6.05;;;;;;;20.45;52.17;94905.88;5052053;28;20272;-60
2022/05/21 07:57:36;;;;;;;10.38;5.78;;;;;;;20.44;49.75;94958.50;5053494;28;20581;-61
2022/05/21 08:00:07;;;;;;;13.68;5.90;;;;;;;20.81;49.22;94960.09;5053194;28;20185;-61
2022/05/21 08:02:32;;;;;;;15.68;5.97;;;;;;;20.83;48.62;94961.50;5053221;28;20184;-63
2022/05/21 08:04:59;;;;;;;10.75;5.50;;;;;;;21.04;45.92;95009.06;5052784;28;20686;-60
2022/05/21 08:07:24;;;;;;;12.82;5.72;;;;;;;20.93;47.32;94959.41;5052681;28;20189;-62
2022/05/21 08:09:50;;;;;;;15.43;6.05;;;;;;;21.33;46.97;94963.13;5051439;28;20186;-61
2022/05/21 08:12:17;;;;;;;13.13;5.18;;;;;;;21.42;47.23;94956.03;5052781;28;20229;-62
2022/05/21 08:14:42;;;;;;;9.13;5.47;;;;;;;21.58;49.03;94907.41;5051491;28;20659;-61
2022/05/21 08:17:09;;;;;;;13.75;5.68;;;;;;;21.59;49.18;94908.97;5053723;22;20237;-62
2022/05/21 08:19:35;;;;;;;15.18;5.15;;;;;;;21.77;48.17;94915.47;5032569;28;20194;-62
2022/05/21 08:26:56;;;;;;;11.93;4.93;;;;;;;21.88;49.19;94870.91;5032773;28;20205;-63
2022/05/21 08:27:30;;;;;;;7.25;4.90;;;;;;;22.25;46.24;94946.38;5033398;28;20555;-63
2022/05/21 08:29:55;;;;;;;14.30;5.18;;;;;;;22.26;43.51;94991.22;5032849;28;20183;-62
2022/05/21 08:32:21;;;;;;;8.13;4.93;;;;;;;22.26;46.57;94916.09;5033006;28;20182;-62
2022/05/21 08:34:47;;;;;;;12.15;4.80;;;;;;;22.21;47.50;94902.91;5032672;28;20647;-62
2022/05/21 08:37:12;;;;;;;7.97;4.63;;;;;;;22.19;47.29;94916.06;5032611;28;20670;-60
2022/05/21 08:39:38;;;;;;;10.27;4.85;;;;;;;22.06;45.99;94930.78;5032391;28;20202;-63
2022/05/21 08:42:47;;;;;;;9.32;4.45;;;;;;;22.42;47.21;94903.56;5032747;28;20277;-62
2022/05/21 08:45:40;;;;;;;9.60;4.70;;;;;;;22.91;47.39;94892.91;5030095;28;20254;-63
2022/05/21 08:48:09;;;;;;;9.95;4.07;;;;;;;23.06;46.58;94911.66;5032952;28;20206;-63
2022/05/21 08:50:39;;;;;;;9.15;3.45;;;;;;;22.85;44.80;94944.75;5039830;22;20225;-61
2022/05/21 08:53:13;;;;;;;10.05;5.20;;;;;;;22.59;44.98;94926.56;5032186;28;20726;-62
2022/05/21 08:55:48;;;;;;;10.85;3.92;;;;;;;23.17;46.97;94894.69;5039439;22;20221;-60
2022/05/21 08:58:20;;;;;;;9.57;3.47;;;;;;;23.43;46.28;94909.47;5032300;28;20210;-63
2022/05/21 09:00:48;;;;;;;9.57;3.15;;;;;;;23.45;45.94;94903.09;5014493;28;20177;-63
2022/05/21 09:03:20;;;;;;;5.72;3.80;;;;;;;23.63;45.30;94916.25;5032314;28;20202;-60
2022/05/21 09:06:07;;;;;;;12.52;4.00;;;;;;;23.62;42.41;94987.31;5031527;28;20214;-63
2022/05/21 09:09:02;;;;;;;5.25;2.78;;;;;;;23.81;39.93;95022.06;5032235;28;20264;-62
2022/05/21 09:11:34;;;;;;;6.18;2.97;;;;;;;23.42;40.41;94993.50;5032288;28;20557;-63
2022/05/21 09:14:11;;;;;;;6.88;3.00;;;;;;;23.83;44.79;94885.81;5032432;28;20210;-60
2022/05/21 09:16:57;;;;;;;11.00;3.65;;;;;;;24.20;39.33;95010.84;5031812;28;20191;-61
2022/05/21 09:19:35;;;;;;;9.77;3.22;;;;;;;24.56;42.57;94928.69;5032309;28;20244;-62
2022/05/21 09:22:10;;;;;;;7.78;3.78;;;;;;;24.66;43.45;94903.03;5032073;28;20760;-62
2022/05/21 09:24:44;;;;;;;5.97;2.83;;;;;;;24.52;38.76;94995.13;5032139;28;20213;-61
2022/05/21 09:27:36;;;;;;;11.10;3.45;;;;;;;24.85;38.18;94997.56;5014272;28;20188;-61
2022/05/21 09:30:13;;;;;;;7.18;4.30;;;;;;;25.23;38.67;94989.72;5032401;28;20183;-61
2022/05/21 09:32:40;;;;;;;6.50;3.25;;;;;;;25.43;37.69;95003.44;5031883;28;20209;-61
2022/05/21 09:35:07;;;;;;;9.80;3.22;;;;;;;25.66;38.16;94982.78;5032325;28;20178;-64
2022/05/21 09:37:33;;;;;;;7.03;3.30;;;;;;;26.21;39.57;94934.94;5031822;28;20539;-63
2022/05/21 09:39:59;;;;;;;9.95;3.80;;;;;;;26.08;37.00;94992.41;5032289;28;20193;-63
2022/05/21 09:45:24;;;;;;;9.00;3.05;;;;;;;26.37;35.19;95012.56;5031758;28;20755;-59
2022/05/21 09:48:14;;;;;;;6.38;3.80;;;;;;;26.66;36.37;94978.91;5031984;28;20233;-63
2022/05/21 09:50:58;;;;;;;5.55;2.47;;;;;;;26.99;36.29;94963.63;5031782;28;20178;-59
2022/05/21 09:53:33;;;;;;;7.22;3.00;;;;;;;27.00;34.52;94991.31;5031821;28;20627;-60
2022/05/21 09:55:58;;;;;;;6.15;2.95;;;;;;;27.18;34.71;94973.78;5031678;28;20265;-64
2022/05/21 09:58:24;;;;;;;6.50;2.75;;;;;;;27.45;32.26;95016.00;5031672;28;20636;-61
2022/05/21 10:00:55;;;;;;;5.82;3.08;;;;;;;27.59;32.47;95008.75;5031793;28;20221;-61
2022/05/21 10:03:50;;;;;;;6.78;2.28;;;;;;;27.97;33.45;94962.88;5031791;28;20256;-62
2022/05/21 10:06:26;;;;;;;4.45;2.20;;;;;;;27.74;30.06;95041.25;5031673;28;20671;-63
2022/05/21 10:12:27;;;;;;;6.13;2.50;;;;;;;28.31;30.46;94855.75;5031859;28;20659;-63
2022/05/21 10:15:05;;;;;;;4.53;1.80;;;;;;;27.95;29.83;94838.59;5021683;28;20523;-60
2022/05/21 10:17:42;;;;;;;5.20;1.88;;;;;;;28.22;30.24;94830.00;5014836;28;20182;-63
2022/05/21 10:20:15;;;;;;;7.95;2.40;;;;;;;28.13;28.71;94846.28;5035228;28;20648;-63
2022/05/21 10:22:51;;;;;;;3.03;1.52;;;;;;;27.97;28.20;94837.38;5035387;28;20248;-61
2022/05/21 10:25:22;;;;;;;2.17;1.67;;;;;;;27.89;28.00;94831.69;5035081;28;20263;-63
2022/05/21 10:28:26;;;;;;;5.75;4.57;;;;;;;27.83;27.74;94825.56;5035250;28;20256;-62
2022/05/21 10:31:04;;;;;;;3.10;1.85;;;;;;;28.65;29.98;94782.34;5035217;28;20178;-60
2022/05/21 10:33:32;;;;;;;3.28;1.75;;;;;;;29.06;29.01;94804.72;5035011;28;20230;-60
2022/05/21 10:36:09;;;;;;;5.32;2.25;;;;;;;29.54;28.00;94806.69;5034878;28;20269;-61
2022/05/21 10:38:57;;;;;;;2.88;1.70;;;;;;;28.69;26.63;94822.72;5035201;28;20213;-60
2022/05/21 10:42:02;;;;;;;2.35;1.67;;;;;;;29.60;28.03;94801.28;5034974;28;20186;-61
2022/05/21 10:44:45;;;;;;;4.53;1.60;;;;;;;29.32;26.22;94814.53;5035089;28;20202;-60
2022/05/21 10:47:31;;;;;;;8.88;2.13;;;;;;;30.09;28.22;94768.03;5016740;28;20280;-63
2022/05/21 10:50:16;;;;;;;5.65;2.15;;;;;;;30.51;26.46;94799.69;5035297;28;20174;-61
2022/05/21 10:53:07;;;;;;;3.05;2.17;;;;;;;30.28;24.87;94797.34;5016563;28;20224;-61
2022/05/21 10:55:51;;;;;;;3.50;2.30;;;;;;;30.12;26.59;94772.00;5034776;28;20201;-63
2022/05/21 10:58:35;;;;;;;2.05;1.80;;;;;;;30.69;26.77;94754.66;5034468;28;20344;-61
2022/05/21 11:01:13;;;;;;;5.43;2.20;;;;;;;30.33;26.12;94750.19;5034321;28;20668;-62
2022/05/21 11:04:01;;;;;;;3.55;2.17;;;;;;;30.68;26.22;94747.84;5034530;28;20209;-63
2022/05/21 11:06:32;;;;;;;3.00;1.70;;;;;;;31.17;24.64;94761.59;5034039;28;20281;-60
2022/05/21 11:09:05;;;;;;;6.75;4.03;;;;;;;30.56;25.49;94731.50;5034434;28;20206;-60
2022/05/21 11:11:42;;;;;;;2.05;1.70;;;;;;;31.08;24.66;94747.34;5034213;28;20595;-61
2022/05/21 11:14:24;;;;;;;5.20;2.17;;;;;;;30.94;26.55;94704.19;5034211;28;20650;-63
2022/05/21 11:17:25;;;;;;;4.60;1.75;;;;;;;30.93;25.01;94727.03;5034131;28;20158;-60
2022/05/21 11:19:57;;;;;;;2.92;1.60;;;;;;;30.51;24.58;94721.72;4963953;28;20196;-65
2022/05/21 11:22:38;;;;;;;3.13;1.55;;;;;;;31.12;23.77;94722.16;5034002;28;20175;-60
2022/05/21 11:25:37;;;;;;;1.80;1.50;;;;;;;31.30;24.32;94703.31;5034156;28;20635;-63
2022/05/21 11:28:21;;;;;;;2.08;1.40;;;;;;;31.12;22.88;94720.31;4996236;28;20218;-60
2022/05/21 11:30:47;;;;;;;3.92;1.52;;;;;;;30.98;23.10;94702.63;5033797;28;20171;-63
2022/05/21 11:39:07;;;;;;;3.45;1.45;;;;;;;31.78;25.30;94660.09;5034346;28;20291;-63
2022/05/21 11:42:08;;;;;;;3.05;1.70;;;;;;;30.93;23.97;94684.22;5033417;28;20182;-61
2022/05/21 11:44:59;;;;;;;8.02;1.90;;;;;;;30.76;24.34;94673.06;5034116;28;20276;-61
2022/05/21 11:47:33;;;;;;;3.30;1.63;;;;;;;30.01;25.75;94649.66;5015736;28;20193;-64
2022/05/21 11:50:03;;;;;;;2.72;2.00;;;;;;;29.90;24.97;94654.03;5034053;28;20225;-64
2022/05/21 11:52:32;;;;;;;1.88;1.67;;;;;;;30.77;27.27;94615.03;5033267;28;20182;-64
2022/05/21 11:54:57;;;;;;;3.38;1.60;;;;;;;31.30;25.80;94645.50;5033389;28;20190;-63
2022/05/21 11:57:49;;;;;;;3.33;1.30;;;;;;;31.72;25.57;94647.97;5033206;28;20686;-63
2022/05/21 12:00:18;;;;;;;2.22;1.70;;;;;;;31.96;25.46;94651.72;5033342;28;20566;-62
2022/05/21 12:02:53;;;;;;;3.67;1.50;;;;;;;32.22;24.89;94651.47;5033100;28;20198;-62
2022/05/21 12:05:40;;;;;;;2.20;1.45;;;;;;;31.86;26.08;94636.69;5032996;28;20221;-60
2022/05/21 12:08:12;;;;;;;3.28;1.48;;;;;;;31.66;24.90;94641.94;5015209;28;20198;-62
2022/05/21 12:11:01;;;;;;;5.32;1.80;;;;;;;31.38;25.25;94634.47;5033069;28;20193;-61